createdAt,value
2022-09-16T00:01:31.026Z,9.73
2022-09-16T00:03:57.575Z,9.88
2022-09-16T00:06:25.643Z,9.85
2022-09-16T00:08:52.247Z,9.86
2022-09-16T00:11:18.839Z,9.74
2022-09-16T00:13:45.787Z,9.57
2022-09-16T00:16:16.803Z,9.41
2022-09-16T00:18:43.172Z,9.23
2022-09-16T00:21:10.514Z,9.34
2022-09-16T00:23:37.448Z,9.28
2022-09-16T00:26:04.439Z,9.33
2022-09-16T00:28:30.820Z,9.12
2022-09-16T00:31:01.303Z,9.04
2022-09-16T00:33:27.674Z,9.19
2022-09-16T00:36:04.249Z,9.07
2022-09-16T00:38:31.007Z,9.14
2022-09-16T00:40:57.331Z,9.18
2022-09-16T00:43:23.691Z,9.02
2022-09-16T00:45:55.170Z,9.04
2022-09-16T00:48:22.715Z,9.10
2022-09-16T00:50:51.286Z,9.13
2022-09-16T00:53:20.562Z,9.02
2022-09-16T00:55:47.060Z,8.90
2022-09-16T00:58:13.419Z,8.85
2022-09-16T01:00:40.651Z,8.90
2022-09-16T01:03:07.063Z,8.85
2022-09-16T01:05:33.872Z,8.85
2022-09-16T01:08:00.456Z,8.54
2022-09-16T01:10:26.840Z,8.66
2022-09-16T01:12:59.858Z,8.73
2022-09-16T01:15:35.500Z,8.72
2022-09-16T01:18:11.459Z,8.68
2022-09-16T01:20:57.869Z,8.78
2022-09-16T01:23:46.605Z,8.52
2022-09-16T01:26:20.630Z,8.45
2022-09-16T01:28:47.261Z,8.55
2022-09-16T01:31:13.694Z,8.45
2022-09-16T01:33:49.302Z,8.56
2022-09-16T01:36:25.600Z,8.35
2022-09-16T01:38:51.895Z,8.39
2022-09-16T01:41:31.602Z,8.36
2022-09-16T01:43:57.921Z,8.26
2022-09-16T01:46:37.984Z,8.36
2022-09-16T01:49:13.634Z,8.35
2022-09-16T01:51:53.433Z,8.30
2022-09-16T01:54:19.807Z,8.29
2022-09-16T01:57:01.583Z,8.24
2022-09-16T01:59:38.146Z,8.39
2022-09-16T02:02:06.840Z,8.58
2022-09-16T02:04:36.310Z,8.36
2022-09-16T02:07:05.272Z,8.40
2022-09-16T02:09:40.313Z,8.52
2022-09-16T02:12:10.149Z,8.50
2022-09-16T02:14:40.853Z,8.55
2022-09-16T02:17:16.713Z,8.69
2022-09-16T02:19:56.886Z,8.92
2022-09-16T02:22:25.583Z,8.90
2022-09-16T02:24:52.613Z,8.84
2022-09-16T02:27:21.503Z,8.93
2022-09-16T02:29:51.261Z,8.85
2022-09-16T02:32:19.094Z,8.95
2022-09-16T02:34:47.245Z,8.96
2022-09-16T02:37:49.125Z,8.91
2022-09-16T02:40:18.507Z,8.84
2022-09-16T02:42:44.961Z,8.72
2022-09-16T02:45:11.833Z,8.82
2022-09-16T02:47:41.246Z,8.77
2022-09-16T02:50:13.166Z,8.81
2022-09-16T02:52:43.233Z,8.92
2022-09-16T02:55:24.506Z,8.92
2022-09-16T02:57:50.885Z,9.04
2022-09-16T03:00:17.318Z,8.89
2022-09-16T03:02:44.145Z,8.77
2022-09-16T03:05:10.572Z,8.89
2022-09-16T03:07:37.510Z,8.59
2022-09-16T03:10:04.175Z,8.40
2022-09-16T03:12:49.564Z,8.44
2022-09-16T03:15:25.091Z,8.55
2022-09-16T03:17:54.443Z,8.31
2022-09-16T03:20:23.779Z,8.48
2022-09-16T03:22:50.289Z,8.56
2022-09-16T03:25:19.607Z,8.45
2022-09-16T03:27:51.788Z,8.56
2022-09-16T03:30:18.613Z,8.52
2022-09-16T03:32:59.693Z,8.44
2022-09-16T03:35:31.558Z,8.49
2022-09-16T03:37:59.492Z,8.50
2022-09-16T03:40:27.300Z,8.56
2022-09-16T03:42:53.627Z,8.58
2022-09-16T03:45:21.287Z,8.71
2022-09-16T03:47:49.500Z,8.60
2022-09-16T03:50:16.262Z,8.56
2022-09-16T03:52:42.555Z,8.60
2022-09-16T03:55:10.719Z,8.66
2022-09-16T03:57:37.366Z,8.69
2022-09-16T04:00:04.832Z,8.60
2022-09-16T04:02:31.234Z,8.54
2022-09-16T04:04:57.564Z,8.75
2022-09-16T04:07:23.865Z,8.68
2022-09-16T04:09:50.188Z,8.60
2022-09-16T04:12:16.510Z,8.70
2022-09-16T04:14:42.877Z,8.65
2022-09-16T04:17:09.237Z,8.57
2022-09-16T04:19:35.597Z,8.59
2022-09-16T04:22:01.908Z,8.62
2022-09-16T04:24:28.424Z,8.80
2022-09-16T04:26:54.748Z,8.71
2022-09-16T04:29:21.087Z,8.78
2022-09-16T04:31:47.440Z,8.85
2022-09-16T04:34:13.775Z,8.75
2022-09-16T04:36:40.087Z,8.78
2022-09-16T04:39:06.427Z,8.78
2022-09-16T04:41:32.881Z,8.98
2022-09-16T04:43:59.849Z,8.98
2022-09-16T04:46:27.594Z,8.82
2022-09-16T04:48:55.107Z,8.78
2022-09-16T04:51:22.489Z,8.87
2022-09-16T04:53:49.458Z,8.84
2022-09-16T04:56:15.955Z,8.93
2022-09-16T04:58:46.142Z,9.04
2022-09-16T05:01:14.063Z,8.85
2022-09-16T05:03:41.323Z,8.89
2022-09-16T05:06:08.814Z,8.98
2022-09-16T05:08:35.359Z,8.86
2022-09-16T05:11:05.776Z,8.82
2022-09-16T05:13:32.126Z,8.82
2022-09-16T05:16:02.636Z,8.95
2022-09-16T05:18:29.018Z,8.89
2022-09-16T05:20:59.310Z,8.94
2022-09-16T05:23:25.850Z,8.97
2022-09-16T05:25:52.485Z,8.99
2022-09-16T05:28:18.781Z,9.09
2022-09-16T05:30:45.135Z,9.03
2022-09-16T05:33:11.616Z,9.14
2022-09-16T05:35:37.913Z,9.14
2022-09-16T05:38:04.370Z,9.21
2022-09-16T05:40:30.711Z,9.30
2022-09-16T05:42:57.057Z,9.34
2022-09-16T05:45:26.687Z,9.40
2022-09-16T05:47:55.105Z,9.59
2022-09-16T05:50:21.407Z,9.60
2022-09-16T05:52:47.724Z,9.62
2022-09-16T05:55:14.042Z,9.85
2022-09-16T05:57:40.343Z,9.76
2022-09-16T06:00:07.001Z,9.76
2022-09-16T06:02:33.366Z,9.72
2022-09-16T06:04:59.785Z,9.77
2022-09-16T06:07:26.101Z,9.86
2022-09-16T06:09:53.012Z,9.86
2022-09-16T06:12:19.322Z,9.84
2022-09-16T06:14:45.796Z,9.89
2022-09-16T06:17:12.235Z,10.04
2022-09-16T06:19:38.558Z,10.07
2022-09-16T06:22:04.901Z,9.97
2022-09-16T06:24:31.464Z,10.10
2022-09-16T06:26:57.750Z,10.16
2022-09-16T06:29:24.340Z,10.30
2022-09-16T06:31:50.676Z,10.29
2022-09-16T06:34:18.497Z,10.32
2022-09-16T06:36:45.839Z,10.79
2022-09-16T06:39:13.228Z,10.77
2022-09-16T06:41:39.765Z,10.87
2022-09-16T06:44:06.086Z,10.67
2022-09-16T06:46:32.400Z,10.54
2022-09-16T06:49:02.811Z,10.39
2022-09-16T06:51:32.039Z,10.49
2022-09-16T06:54:05.827Z,10.48
2022-09-16T06:56:34.074Z,10.48
2022-09-16T06:59:00.386Z,10.61
2022-09-16T07:01:28.760Z,10.56
2022-09-16T07:03:56.518Z,10.54
2022-09-16T07:06:37.287Z,10.85
2022-09-16T07:09:10.572Z,11.05
2022-09-16T07:11:36.954Z,11.03
2022-09-16T07:14:03.375Z,11.25
2022-09-16T07:16:29.718Z,11.39
2022-09-16T07:19:00.757Z,11.69
2022-09-16T07:21:30.763Z,11.69
2022-09-16T07:23:58.126Z,11.59
2022-09-16T07:26:28.766Z,11.69
2022-09-16T07:28:55.834Z,12.07
2022-09-16T07:31:25.126Z,12.09
2022-09-16T07:33:52.063Z,11.94
2022-09-16T07:36:20.166Z,11.84
2022-09-16T07:38:47.157Z,12.09
2022-09-16T07:41:14.721Z,11.87
2022-09-16T07:43:41.675Z,11.76
2022-09-16T07:46:09.074Z,12.01
2022-09-16T07:48:35.651Z,12.28
2022-09-16T07:51:03.637Z,12.06
2022-09-16T07:53:30.298Z,12.46
2022-09-16T07:55:57.297Z,12.41
2022-09-16T07:58:23.666Z,12.60
2022-09-16T08:00:50.143Z,12.68
2022-09-16T08:03:17.242Z,12.79
2022-09-16T08:05:43.974Z,12.58
2022-09-16T08:08:10.377Z,12.87
2022-09-16T08:10:39.712Z,12.86
2022-09-16T08:13:06.815Z,13.09
2022-09-16T08:15:33.420Z,13.21
2022-09-16T08:17:59.895Z,13.13
2022-09-16T08:20:27.089Z,13.32
2022-09-16T08:22:57.430Z,13.77
2022-09-16T08:25:24.591Z,13.89
2022-09-16T08:27:54.099Z,13.98
2022-09-16T08:30:22.630Z,13.97
2022-09-16T08:32:55.254Z,14.11
2022-09-16T08:35:21.607Z,13.66
2022-09-16T08:37:50.170Z,13.80
2022-09-16T08:40:18.501Z,13.58
2022-09-16T08:42:47.878Z,13.52
2022-09-16T08:45:20.649Z,13.37
2022-09-16T08:48:03.158Z,13.26
2022-09-16T08:50:31.997Z,13.23
2022-09-16T08:52:59.843Z,13.26
2022-09-16T08:55:32.708Z,13.47
2022-09-16T08:58:05.937Z,13.79
2022-09-16T09:00:32.845Z,13.83
2022-09-16T09:03:07.519Z,13.98
2022-09-16T09:05:47.195Z,14.27
2022-09-16T09:08:19.350Z,14.45
2022-09-16T09:10:50.924Z,14.17
2022-09-16T09:13:18.019Z,14.19
2022-09-16T09:16:00.331Z,14.66
2022-09-16T09:18:38.979Z,14.64
2022-09-16T09:21:11.459Z,14.46
2022-09-16T09:23:43.951Z,14.62
2022-09-16T09:26:10.351Z,14.38
2022-09-16T09:28:49.148Z,14.08
2022-09-16T09:31:18.572Z,13.62
2022-09-16T09:33:54.712Z,13.04
2022-09-16T09:36:27.272Z,12.60
2022-09-16T09:38:56.658Z,12.22
2022-09-16T09:41:31.445Z,12.13
2022-09-16T09:44:16.695Z,12.05
2022-09-16T09:46:45.374Z,11.90
2022-09-16T09:49:13.877Z,11.85
2022-09-16T09:51:57.021Z,11.93
2022-09-16T09:54:26.246Z,11.95
2022-09-16T09:56:59.845Z,11.83
2022-09-16T09:59:38.440Z,12.02
2022-09-16T10:02:13.104Z,12.29
2022-09-16T10:04:39.470Z,12.93
2022-09-16T10:07:06.527Z,12.91
2022-09-16T10:09:33.705Z,12.92
2022-09-16T10:12:01.063Z,13.21
2022-09-16T10:14:32.219Z,13.41
2022-09-16T10:17:03.316Z,13.38
2022-09-16T10:19:31.236Z,13.54
2022-09-16T10:22:12.146Z,14.04
2022-09-16T10:24:40.400Z,14.08
2022-09-16T10:27:21.061Z,14.46
2022-09-16T10:29:47.886Z,14.42
2022-09-16T10:32:19.259Z,14.75
2022-09-16T10:34:46.570Z,14.72
2022-09-16T10:37:13.024Z,15.17
2022-09-16T10:39:40.793Z,15.39
2022-09-16T10:42:24.176Z,15.68
2022-09-16T10:44:52.452Z,16.02
2022-09-16T10:47:22.157Z,16.09
2022-09-16T10:49:49.689Z,15.49
2022-09-16T10:52:16.577Z,14.05
2022-09-16T10:54:43.410Z,13.02
2022-09-16T10:57:24.297Z,12.73
2022-09-16T11:00:16.962Z,12.90
2022-09-16T11:03:02.318Z,13.32
2022-09-16T11:05:34.827Z,14.51
2022-09-16T11:08:10.268Z,15.18
2022-09-16T11:10:42.775Z,16.26
2022-09-16T11:13:09.095Z,15.85
2022-09-16T11:15:38.421Z,15.22
2022-09-16T11:18:14.768Z,14.36
2022-09-16T11:21:00.843Z,13.95
2022-09-16T11:23:39.471Z,13.78
2022-09-16T11:26:17.355Z,13.91
2022-09-16T11:28:46.492Z,13.93
2022-09-16T11:31:31.156Z,15.15
2022-09-16T11:34:16.344Z,15.66
2022-09-16T11:36:55.658Z,15.83
2022-09-16T11:39:25.118Z,15.43
2022-09-16T11:41:57.447Z,16.59
2022-09-16T11:44:40.288Z,17.92
2022-09-16T11:47:15.829Z,17.50
2022-09-16T11:49:46.762Z,17.89
2022-09-16T11:52:13.041Z,17.62
2022-09-16T11:54:42.900Z,17.39
2022-09-16T11:57:15.298Z,16.95
2022-09-16T11:59:44.566Z,16.90
2022-09-16T12:02:31.874Z,16.27
2022-09-16T12:05:14.361Z,15.79
2022-09-16T12:07:43.666Z,14.87
2022-09-16T12:10:17.726Z,15.19
2022-09-16T12:12:53.139Z,15.12
2022-09-16T12:15:22.662Z,15.02
2022-09-16T12:17:53.354Z,14.33
2022-09-16T12:20:22.517Z,13.99
2022-09-16T12:23:00.801Z,14.89
2022-09-16T12:25:47.460Z,15.95
2022-09-16T12:28:20.531Z,14.66
2022-09-16T12:30:49.239Z,13.67
2022-09-16T12:33:33.154Z,12.82
2022-09-16T12:35:59.508Z,12.51
2022-09-16T12:38:26.231Z,12.58
2022-09-16T12:41:10.923Z,13.70
2022-09-16T12:43:37.205Z,14.97
2022-09-16T12:46:06.604Z,15.36
2022-09-16T12:48:38.984Z,14.62
2022-09-16T12:51:17.595Z,15.37
2022-09-16T12:53:46.332Z,14.92
2022-09-16T12:56:15.755Z,14.81
2022-09-16T12:58:42.035Z,15.54
2022-09-16T13:01:27.350Z,15.86
2022-09-16T13:03:56.554Z,15.30
2022-09-16T13:06:28.081Z,14.73
2022-09-16T13:08:54.519Z,14.36
2022-09-16T13:14:23.881Z,13.86
2022-09-16T13:16:54.874Z,13.63
2022-09-16T13:19:27.679Z,13.61
2022-09-16T13:21:58.829Z,13.37
2022-09-16T13:24:31.461Z,13.13
2022-09-16T13:26:57.959Z,12.62
2022-09-16T13:29:25.504Z,12.33
2022-09-16T13:31:51.971Z,12.18
2022-09-16T13:34:19.425Z,11.90
2022-09-16T13:36:45.754Z,11.96
2022-09-16T13:39:14.126Z,11.91
2022-09-16T13:41:40.425Z,11.88
2022-09-16T13:44:25.699Z,11.77
2022-09-16T13:46:52.098Z,11.76
2022-09-16T13:49:25.860Z,11.85
2022-09-16T13:51:52.612Z,11.78
2022-09-16T13:54:18.891Z,11.79
2022-09-16T13:56:51.893Z,11.69
2022-09-16T13:59:30.682Z,11.67
2022-09-16T14:02:13.291Z,11.60
2022-09-16T14:04:51.570Z,11.69
2022-09-16T14:07:44.227Z,11.80
2022-09-16T14:10:25.987Z,11.79
2022-09-16T14:12:58.937Z,11.69
2022-09-16T14:15:25.974Z,11.78
2022-09-16T14:17:55.799Z,11.73
2022-09-16T14:20:23.637Z,11.80
2022-09-16T14:23:00.374Z,11.60
2022-09-16T14:25:35.532Z,11.77
2022-09-16T14:28:18.572Z,11.94
2022-09-16T14:30:45.752Z,12.00
2022-09-16T14:33:13.114Z,12.01
2022-09-16T14:35:39.839Z,12.05
2022-09-16T14:38:18.213Z,12.19
2022-09-16T14:40:53.369Z,12.40
2022-09-16T14:43:20.886Z,12.56
2022-09-16T14:45:52.369Z,12.29
2022-09-16T14:48:20.292Z,12.30
2022-09-16T14:50:48.015Z,12.25
2022-09-16T14:53:35.361Z,12.54
2022-09-16T14:56:02.699Z,12.91
2022-09-16T14:58:30.155Z,13.23
2022-09-16T15:01:10.538Z,13.45
2022-09-16T15:03:42.508Z,13.64
2022-09-16T15:06:12.746Z,14.69
2022-09-16T15:08:57.245Z,16.38
2022-09-16T15:11:46.490Z,18.46
2022-09-16T15:14:12.728Z,18.86
2022-09-16T15:16:47.131Z,21.38
2022-09-16T15:19:19.215Z,22.48
2022-09-16T15:21:45.566Z,21.33
2022-09-16T15:24:17.713Z,20.56
2022-09-16T15:26:46.249Z,18.66
2022-09-16T15:29:18.630Z,17.58
2022-09-16T15:31:45.099Z,16.45
2022-09-16T15:34:23.874Z,19.34
2022-09-16T15:36:59.363Z,18.91
2022-09-16T15:39:33.225Z,18.72
2022-09-16T15:42:19.233Z,19.06
2022-09-16T15:44:56.645Z,20.63
2022-09-16T15:47:22.942Z,21.20
2022-09-16T15:49:52.914Z,21.08
2022-09-16T15:52:19.407Z,22.44
2022-09-16T15:54:46.336Z,23.41
2022-09-16T15:57:31.282Z,23.66
2022-09-16T16:00:11.664Z,24.55
2022-09-16T16:02:38.234Z,22.69
2022-09-16T16:05:09.727Z,24.37
2022-09-16T16:07:52.555Z,23.56
2022-09-16T16:10:20.873Z,23.55
2022-09-16T16:12:49.407Z,24.61
2022-09-16T16:15:17.488Z,25.02
2022-09-16T16:17:44.809Z,23.89
2022-09-16T16:20:13.270Z,23.85
2022-09-16T16:22:40.156Z,23.46
2022-09-16T16:25:07.315Z,23.79
2022-09-16T16:27:33.721Z,24.11
2022-09-16T16:30:00.129Z,23.23
2022-09-16T16:32:26.589Z,23.90
2022-09-16T16:34:54.591Z,24.31
2022-09-16T16:37:45.077Z,24.72
2022-09-16T16:40:08.171Z,23.30
2022-09-16T16:42:35.695Z,21.91
2022-09-16T16:45:02.061Z,20.41
2022-09-16T16:47:28.390Z,19.49
2022-09-16T16:49:54.734Z,18.22
2022-09-16T16:52:21.057Z,17.69
2022-09-16T16:54:47.625Z,16.70
2022-09-16T16:57:14.112Z,16.41
2022-09-16T16:59:40.510Z,16.15
2022-09-16T17:02:06.819Z,15.98
2022-09-16T17:04:33.186Z,15.68
2022-09-16T17:07:24.181Z,15.40
2022-09-16T17:09:45.911Z,15.05
2022-09-16T17:12:12.901Z,14.79
2022-09-16T17:14:39.390Z,14.59
2022-09-16T17:17:05.742Z,14.60
2022-09-16T17:19:32.667Z,14.57
2022-09-16T17:21:58.994Z,14.50
2022-09-16T17:24:25.377Z,14.42
2022-09-16T17:26:51.723Z,14.30
2022-09-16T17:29:18.177Z,14.18
2022-09-16T17:31:45.277Z,14.06
2022-09-16T17:34:12.619Z,13.99
2022-09-16T17:36:40.459Z,13.88
2022-09-16T17:39:08.095Z,13.83
2022-09-16T17:41:34.915Z,13.75
2022-09-16T17:44:05.354Z,13.69
2022-09-16T17:46:31.811Z,13.67
2022-09-16T17:49:01.309Z,13.59
2022-09-16T17:51:27.800Z,13.39
2022-09-16T17:53:54.162Z,13.76
2022-09-16T17:56:20.449Z,13.67
2022-09-16T17:58:47.454Z,13.61
2022-09-16T18:01:15.624Z,13.49
2022-09-16T18:03:42.901Z,13.45
2022-09-16T18:06:28.757Z,13.40
2022-09-16T18:08:55.509Z,13.40
2022-09-16T18:11:22.220Z,13.48
2022-09-16T18:13:53.187Z,13.44
2022-09-16T18:16:20.209Z,13.40
2022-09-16T18:18:49.580Z,13.47
2022-09-16T18:21:16.674Z,13.58
2022-09-16T18:23:43.386Z,13.84
2022-09-16T18:26:11.069Z,13.56
2022-09-16T18:28:58.270Z,13.40
2022-09-16T18:31:24.609Z,13.59
2022-09-16T18:33:54.854Z,13.76
2022-09-16T18:36:22.545Z,13.79
2022-09-16T18:38:52.741Z,13.58
2022-09-16T18:41:21.483Z,13.65
2022-09-16T18:43:51.742Z,13.73
2022-09-16T18:46:24.152Z,13.64
2022-09-16T18:48:52.867Z,13.51
2022-09-16T18:51:27.331Z,13.27
2022-09-16T18:54:00.688Z,13.54
2022-09-16T18:56:27.970Z,13.21
2022-09-16T18:59:19.959Z,13.24
2022-09-16T19:01:44.502Z,13.05
2022-09-16T19:04:12.135Z,12.74
2022-09-16T19:06:39.602Z,12.68
2022-09-16T19:09:07.241Z,12.80
2022-09-16T19:11:35.039Z,12.72
2022-09-16T19:14:01.742Z,12.72
2022-09-16T19:16:28.156Z,12.60
2022-09-16T19:18:55.280Z,12.60
2022-09-16T19:21:22.831Z,12.51
2022-09-16T19:23:53.582Z,12.62
2022-09-16T19:26:19.953Z,12.50
2022-09-16T19:28:46.290Z,12.62
2022-09-16T19:31:14.002Z,12.61
2022-09-16T19:33:41.199Z,12.48
2022-09-16T19:36:11.698Z,12.42
2022-09-16T19:38:38.394Z,12.49
2022-09-16T19:41:05.485Z,12.50
2022-09-16T19:43:31.855Z,12.39
2022-09-16T19:46:08.699Z,12.62
2022-09-16T19:48:37.245Z,12.34
2022-09-16T19:51:04.340Z,12.28
2022-09-16T19:53:31.056Z,12.20
2022-09-16T19:56:01.754Z,12.13
2022-09-16T19:58:28.334Z,12.34
2022-09-16T20:01:02.031Z,12.15
2022-09-16T20:03:29.222Z,12.12
2022-09-16T20:06:02.068Z,12.18
2022-09-16T20:08:28.382Z,11.98
2022-09-16T20:10:54.737Z,11.81
2022-09-16T20:13:21.081Z,11.97
2022-09-16T20:15:47.457Z,12.04
2022-09-16T20:18:13.770Z,11.98
2022-09-16T20:20:40.075Z,12.00
2022-09-16T20:23:06.570Z,12.02
2022-09-16T20:25:33.199Z,11.89
2022-09-16T20:27:59.538Z,11.72
2022-09-16T20:30:26.016Z,11.96
2022-09-16T20:32:52.363Z,11.81
2022-09-16T20:35:18.749Z,11.85
2022-09-16T20:37:45.131Z,11.62
2022-09-16T20:40:11.485Z,11.73
2022-09-16T20:42:37.850Z,11.46
2022-09-16T20:45:04.349Z,11.58
2022-09-16T20:47:30.667Z,11.63
2022-09-16T20:49:57.095Z,11.45
2022-09-16T20:52:24.763Z,11.37
2022-09-16T20:54:51.128Z,11.59
2022-09-16T20:57:17.743Z,11.39
2022-09-16T20:59:44.231Z,11.46
2022-09-16T21:02:10.600Z,11.41
2022-09-16T21:04:36.921Z,11.32
2022-09-16T21:07:03.311Z,11.35
2022-09-16T21:09:29.633Z,11.47
2022-09-16T21:11:56.020Z,11.60
2022-09-16T21:14:22.598Z,11.54
2022-09-16T21:16:49.365Z,11.51
2022-09-16T21:19:16.549Z,11.57
2022-09-16T21:21:49.872Z,11.35
2022-09-16T21:24:16.468Z,11.42
2022-09-16T21:26:44.046Z,11.36
2022-09-16T21:29:17.481Z,11.47
2022-09-16T21:31:44.370Z,11.47
2022-09-16T21:34:20.454Z,11.39
2022-09-16T21:36:47.455Z,11.16
2022-09-16T21:39:14.482Z,11.05
2022-09-16T21:41:41.438Z,11.11
2022-09-16T21:44:07.865Z,11.19
2022-09-16T21:46:41.186Z,11.08
2022-09-16T21:49:14.313Z,11.18
2022-09-16T21:51:40.622Z,11.12
2022-09-16T21:54:08.311Z,11.03
2022-09-16T21:56:37.025Z,10.88
2022-09-16T21:59:03.406Z,11.09
2022-09-16T22:01:31.445Z,10.85
2022-09-16T22:03:59.740Z,10.89
2022-09-16T22:06:27.128Z,10.71
2022-09-16T22:08:54.528Z,10.70
2022-09-16T22:11:21.756Z,10.63
2022-09-16T22:13:48.525Z,10.83
2022-09-16T22:16:28.831Z,10.71
2022-09-16T22:19:03.181Z,10.64
2022-09-16T22:21:31.249Z,10.76
2022-09-16T22:24:01.361Z,10.59
2022-09-16T22:26:28.440Z,10.58
2022-09-16T22:28:55.120Z,10.53
2022-09-16T22:31:22.649Z,10.63
2022-09-16T22:33:49.682Z,10.49
2022-09-16T22:36:18.388Z,10.59
2022-09-16T22:38:48.630Z,10.56
2022-09-16T22:41:15.509Z,10.63
2022-09-16T22:43:43.124Z,10.72
2022-09-16T22:46:11.030Z,10.67
2022-09-16T22:48:37.438Z,10.85
2022-09-16T22:51:04.347Z,10.74
2022-09-16T22:53:31.359Z,10.65
2022-09-16T22:55:58.968Z,10.72
2022-09-16T22:58:25.790Z,10.99
2022-09-16T23:00:53.042Z,10.84
2022-09-16T23:03:20.042Z,10.84
2022-09-16T23:05:56.861Z,10.74
2022-09-16T23:08:24.021Z,11.00
2022-09-16T23:10:51.244Z,10.88
2022-09-16T23:13:18.166Z,11.02
2022-09-16T23:15:45.489Z,10.97
2022-09-16T23:18:12.097Z,10.98
2022-09-16T23:20:38.463Z,10.94
2022-09-16T23:23:04.990Z,11.02
2022-09-16T23:25:31.320Z,10.91
2022-09-16T23:27:58.033Z,11.00
2022-09-16T23:30:24.394Z,11.11
2022-09-16T23:32:50.718Z,11.13
2022-09-16T23:35:17.904Z,11.10
2022-09-16T23:37:44.198Z,11.20
2022-09-16T23:40:10.845Z,11.26
2022-09-16T23:42:37.219Z,11.39
2022-09-16T23:45:04.281Z,11.30
2022-09-16T23:47:30.612Z,11.64
2022-09-16T23:49:57.109Z,11.54
2022-09-16T23:52:23.419Z,11.53
2022-09-16T23:54:49.726Z,11.51
2022-09-16T23:57:16.042Z,11.70
2022-09-16T23:59:42.363Z,11.80
